createdAt,value
2022-09-05T00:02:39.288Z,52.18
2022-09-05T00:06:02.760Z,52.39
2022-09-05T00:08:59.668Z,52.18
2022-09-05T00:11:53.636Z,52.22
2022-09-05T00:15:16.311Z,51.95
2022-09-05T00:20:44.713Z,52.09
2022-09-05T00:24:37.273Z,53.05
2022-09-05T00:28:26.842Z,52.82
2022-09-05T00:31:53.957Z,52.43
2022-09-05T00:34:57.259Z,52.65
2022-09-05T00:37:47.697Z,52.77
2022-09-05T00:40:39.782Z,52.91
2022-09-05T00:43:30.809Z,53.07
2022-09-05T00:46:23.938Z,53.61
2022-09-05T00:49:21.358Z,53.44
2022-09-05T00:52:15.093Z,54.00
2022-09-05T00:55:18.656Z,53.62
2022-09-05T00:58:27.430Z,54.33
2022-09-05T01:01:30.075Z,54.16
2022-09-05T01:04:39.955Z,53.94
2022-09-05T01:07:44.209Z,54.47
2022-09-05T01:10:42.725Z,54.61
2022-09-05T01:13:42.276Z,54.76
2022-09-05T01:16:35.868Z,54.89
2022-09-05T01:19:33.103Z,54.86
2022-09-05T01:22:36.450Z,55.03
2022-09-05T01:25:47.039Z,54.92
2022-09-05T01:29:16.328Z,55.46
2022-09-05T01:32:08.425Z,54.12
2022-09-05T01:35:24.217Z,55.75
2022-09-05T01:38:23.647Z,55.95
2022-09-05T01:41:23.444Z,55.92
2022-09-05T01:44:20.202Z,56.27
2022-09-05T01:47:30.255Z,56.75
2022-09-05T01:50:36.295Z,56.59
2022-09-05T01:53:38.261Z,56.91
2022-09-05T01:56:39.052Z,56.82
2022-09-05T01:59:38.660Z,57.01
2022-09-05T02:02:50.762Z,57.37
2022-09-05T02:06:08.940Z,57.64
2022-09-05T02:09:14.673Z,57.36
2022-09-05T02:12:07.368Z,58.11
2022-09-05T02:15:00.562Z,58.46
2022-09-05T02:17:53.851Z,58.31
2022-09-05T02:20:51.261Z,58.21
2022-09-05T02:23:44.412Z,58.41
2022-09-05T02:26:36.629Z,59.14
2022-09-05T02:29:35.010Z,58.77
2022-09-05T02:32:27.232Z,59.05
2022-09-05T02:35:24.839Z,59.22
2022-09-05T02:38:56.765Z,59.40
2022-09-05T02:45:17.000Z,59.33
2022-09-05T02:45:25.692Z,59.80
2022-09-05T02:48:23.051Z,60.51
2022-09-05T02:57:23.029Z,60.53
2022-09-05T02:57:33.864Z,60.26
2022-09-05T02:58:06.512Z,60.72
2022-09-05T03:01:03.290Z,61.28
2022-09-05T03:04:00.347Z,61.44
2022-09-05T03:06:58.955Z,62.17
2022-09-05T03:10:08.201Z,61.97
2022-09-05T03:13:34.781Z,62.40
2022-09-05T03:17:07.946Z,62.58
2022-09-05T03:20:27.029Z,62.81
2022-09-05T03:23:35.161Z,63.32
2022-09-05T03:26:53.327Z,63.89
2022-09-05T03:30:01.997Z,64.36
2022-09-05T03:33:33.936Z,63.86
2022-09-05T03:37:06.440Z,63.81
2022-09-05T03:40:21.750Z,63.47
2022-09-05T03:43:39.868Z,63.86
2022-09-05T03:46:52.081Z,63.89
2022-09-05T03:53:09.887Z,64.19
2022-09-05T03:57:14.835Z,64.21
2022-09-05T03:57:15.961Z,61.90
2022-09-05T04:00:10.548Z,64.10
2022-09-05T04:08:09.911Z,64.17
2022-09-05T04:08:19.115Z,64.51
2022-09-05T04:09:50.617Z,65.02
2022-09-05T04:12:49.843Z,64.87
2022-09-05T04:15:41.896Z,65.50
2022-09-05T04:18:36.504Z,65.41
2022-09-05T04:21:27.779Z,65.10
2022-09-05T04:24:25.774Z,65.51
2022-09-05T04:27:40.211Z,66.21
2022-09-05T04:30:40.579Z,65.73
2022-09-05T04:33:36.264Z,65.37
2022-09-05T04:36:34.027Z,65.54
2022-09-05T04:39:29.660Z,66.46
2022-09-05T04:42:23.606Z,66.33
2022-09-05T04:45:14.412Z,66.76
2022-09-05T04:48:15.835Z,66.62
2022-09-05T04:51:13.448Z,66.68
2022-09-05T04:54:20.405Z,66.92
2022-09-05T04:57:21.630Z,66.64
2022-09-05T05:05:59.243Z,66.11
2022-09-05T05:06:19.741Z,66.68
2022-09-05T05:06:46.468Z,65.94
2022-09-05T05:09:39.696Z,66.28
2022-09-05T05:17:57.744Z,65.67
2022-09-05T05:18:15.781Z,65.63
2022-09-05T05:19:18.560Z,64.19
2022-09-05T05:22:15.019Z,63.70
2022-09-05T05:25:04.094Z,62.54
2022-09-05T05:28:09.826Z,63.43
2022-09-05T05:31:15.069Z,62.96
2022-09-05T05:34:09.753Z,61.57
2022-09-05T05:37:19.716Z,60.84
2022-09-05T05:40:13.056Z,60.84
2022-09-05T05:43:15.589Z,58.74
2022-09-05T05:46:03.069Z,56.56
2022-09-05T05:49:11.319Z,54.65
2022-09-05T05:52:22.969Z,53.80
2022-09-05T05:55:52.989Z,53.87
2022-09-05T05:59:13.834Z,54.25
2022-09-05T06:02:39.746Z,54.69
2022-09-05T06:06:06.613Z,55.25
2022-09-05T06:14:50.463Z,56.29
2022-09-05T06:14:57.125Z,55.10
2022-09-05T06:16:49.947Z,55.16
2022-09-05T06:22:04.552Z,55.18
2022-09-05T06:23:50.680Z,54.95
2022-09-05T06:27:09.099Z,54.50
2022-09-05T06:30:01.741Z,53.35
2022-09-05T06:33:09.702Z,51.65
2022-09-05T06:36:18.428Z,50.05
2022-09-05T06:39:15.858Z,48.53
2022-09-05T06:42:42.606Z,48.68
2022-09-05T06:45:39.830Z,49.26
2022-09-05T06:48:46.046Z,49.30
2022-09-05T06:52:28.046Z,49.05
2022-09-05T06:55:28.511Z,48.58
2022-09-05T06:58:57.357Z,48.30
2022-09-05T07:02:00.275Z,47.15
2022-09-05T07:05:37.354Z,47.33
2022-09-05T07:08:34.870Z,47.64
2022-09-05T07:11:32.513Z,47.56
2022-09-05T07:14:25.607Z,49.35
2022-09-05T07:17:17.635Z,47.44
2022-09-05T07:20:22.099Z,47.96
2022-09-05T07:24:05.494Z,48.16
2022-09-05T07:26:51.535Z,47.45
2022-09-05T07:29:53.410Z,48.38
2022-09-05T07:32:51.880Z,47.89
2022-09-05T07:35:42.336Z,46.64
2022-09-05T07:38:55.176Z,47.27
2022-09-05T07:41:50.721Z,46.35
2022-09-05T07:44:41.700Z,46.54
2022-09-05T07:47:34.024Z,46.30
2022-09-05T07:53:16.665Z,46.78
2022-09-05T07:57:01.958Z,44.84
2022-09-05T07:57:22.515Z,44.80
2022-09-05T08:00:01.864Z,45.16
2022-09-05T08:03:08.586Z,43.45
2022-09-05T08:05:59.918Z,43.24
2022-09-05T08:09:18.379Z,44.29
2022-09-05T08:12:16.036Z,42.86
2022-09-05T08:15:14.010Z,43.42
2022-09-05T08:18:12.484Z,43.66
2022-09-05T08:21:05.927Z,41.95
2022-09-05T08:23:58.455Z,40.81
2022-09-05T08:26:50.158Z,38.80
2022-09-05T08:29:40.113Z,37.52
2022-09-05T08:32:38.812Z,37.49
2022-09-05T08:35:32.865Z,36.42
2022-09-05T08:38:21.602Z,34.99
2022-09-05T08:41:17.733Z,31.74
2022-09-05T08:46:42.012Z,28.21
2022-09-05T08:47:44.965Z,26.90
2022-09-05T08:50:53.610Z,24.40
2022-09-05T08:53:59.746Z,23.99
2022-09-05T08:56:55.427Z,23.09
2022-09-05T09:00:18.389Z,21.29
2022-09-05T09:03:17.227Z,21.46
2022-09-05T09:06:22.276Z,21.84
2022-09-05T09:09:20.121Z,20.76
2022-09-05T09:12:15.805Z,20.29
2022-09-05T09:15:11.279Z,20.57
2022-09-05T09:18:10.251Z,21.16
2022-09-05T09:21:12.641Z,20.30
2022-09-05T09:24:16.265Z,20.89
2022-09-05T09:27:05.405Z,25.83
2022-09-05T09:29:54.726Z,24.30
2022-09-05T09:32:46.418Z,24.12
2022-09-05T09:35:47.734Z,23.64
2022-09-05T09:38:46.681Z,24.90
2022-09-05T09:42:00.255Z,26.45
2022-09-05T09:45:27.459Z,26.70
2022-09-05T09:48:43.939Z,26.39
2022-09-05T09:52:19.499Z,26.20
2022-09-05T09:55:45.899Z,25.91
2022-09-05T09:59:04.561Z,27.24
2022-09-05T10:02:07.397Z,25.24
2022-09-05T10:11:09.531Z,25.95
2022-09-05T10:11:20.811Z,25.58
2022-09-05T10:12:31.461Z,25.48
2022-09-05T10:15:31.724Z,25.96
2022-09-05T10:18:40.112Z,25.34
2022-09-05T10:25:39.673Z,26.72
2022-09-05T10:28:37.294Z,25.18
2022-09-05T10:33:58.325Z,26.11
2022-09-05T10:35:11.051Z,26.42
2022-09-05T10:38:14.659Z,25.89
2022-09-05T10:41:20.357Z,25.15
2022-09-05T10:44:15.126Z,25.49
2022-09-05T10:47:16.446Z,26.25
2022-09-05T10:50:15.276Z,26.11
2022-09-05T10:53:27.045Z,25.36
2022-09-05T10:56:26.122Z,25.86
2022-09-05T11:02:19.337Z,25.18
2022-09-05T11:02:41.185Z,26.10
2022-09-05T11:05:38.336Z,25.91
2022-09-05T11:08:35.833Z,25.80
2022-09-05T11:11:34.221Z,26.54
2022-09-05T11:14:41.985Z,26.67
2022-09-05T11:17:39.143Z,26.60
2022-09-05T11:20:45.182Z,26.40
2022-09-05T11:23:37.626Z,26.21
2022-09-05T11:26:31.128Z,28.24
2022-09-05T11:29:22.177Z,28.43
2022-09-05T11:34:58.728Z,29.31
2022-09-05T11:39:53.198Z,29.67
2022-09-05T11:40:24.934Z,29.77
2022-09-05T11:42:22.909Z,27.41
2022-09-05T11:45:27.350Z,29.21
2022-09-05T11:48:25.892Z,29.32
2022-09-05T11:51:33.939Z,28.76
2022-09-05T11:54:35.987Z,28.67
2022-09-05T11:57:34.448Z,29.05
2022-09-05T12:00:31.900Z,29.15
2022-09-05T12:03:59.774Z,28.88
2022-09-05T12:07:30.452Z,28.79
2022-09-05T12:10:45.913Z,28.92
2022-09-05T12:13:37.299Z,28.96
2022-09-05T12:16:36.702Z,29.13
2022-09-05T12:19:32.864Z,28.90
2022-09-05T12:22:26.543Z,28.78
2022-09-05T12:27:20.909Z,29.13
2022-09-05T12:29:34.076Z,29.29
2022-09-05T12:32:34.321Z,29.30
2022-09-05T12:36:11.564Z,29.45
2022-09-05T12:40:57.992Z,29.49
2022-09-05T12:41:43.001Z,29.53
2022-09-05T12:44:40.227Z,29.65
2022-09-05T12:47:43.741Z,29.78
2022-09-05T12:50:39.309Z,29.73
2022-09-05T12:53:34.865Z,29.78
2022-09-05T12:58:34.711Z,29.77
2022-09-05T13:02:58.600Z,29.83
2022-09-05T13:03:07.157Z,30.10
2022-09-05T13:05:57.602Z,30.16
2022-09-05T13:08:47.609Z,30.31
2022-09-05T13:14:55.450Z,30.29
2022-09-05T13:15:22.713Z,30.19
2022-09-05T13:18:09.866Z,30.40
2022-09-05T13:21:05.809Z,30.67
2022-09-05T13:24:00.907Z,30.78
2022-09-05T13:26:53.088Z,30.94
2022-09-05T13:30:38.018Z,31.10
2022-09-05T13:37:55.321Z,31.04
2022-09-05T13:38:11.972Z,31.25
2022-09-05T13:39:19.304Z,31.35
2022-09-05T13:42:10.051Z,31.39
2022-09-05T13:44:57.785Z,31.44
2022-09-05T13:47:54.724Z,31.48
2022-09-05T13:50:43.461Z,31.51
2022-09-05T13:53:36.817Z,31.52
2022-09-05T13:56:28.617Z,31.56
2022-09-05T13:59:16.114Z,31.71
2022-09-05T14:02:25.486Z,31.58
2022-09-05T14:05:25.374Z,31.57
2022-09-05T14:08:37.339Z,31.71
2022-09-05T14:11:41.439Z,31.75
2022-09-05T14:17:54.870Z,31.96
2022-09-05T14:21:02.065Z,31.92
2022-09-05T14:23:58.050Z,31.99
2022-09-05T14:26:46.663Z,31.96
2022-09-05T14:29:35.836Z,32.13
2022-09-05T14:37:35.440Z,32.10
2022-09-05T14:37:38.870Z,32.28
2022-09-05T14:38:15.701Z,32.34
2022-09-05T14:41:10.922Z,32.59
2022-09-05T14:44:10.084Z,32.82
2022-09-05T14:46:45.157Z,32.85
2022-09-05T14:49:34.192Z,33.04
2022-09-05T14:52:16.378Z,33.12
2022-09-05T15:02:42.571Z,33.39
2022-09-05T15:02:47.777Z,33.41
2022-09-05T15:06:30.145Z,33.60
2022-09-05T15:11:26.274Z,33.42
2022-09-05T15:12:21.163Z,33.61
2022-09-05T15:14:38.995Z,33.72
2022-09-05T15:17:07.338Z,33.90
2022-09-05T15:20:05.126Z,34.04
2022-09-05T15:22:36.389Z,34.09
2022-09-05T15:25:16.678Z,34.23
2022-09-05T15:27:45.953Z,34.18
2022-09-05T15:30:18.537Z,34.15
2022-09-05T15:32:50.595Z,34.50
2022-09-05T15:35:34.958Z,34.42
2022-09-05T15:38:19.833Z,34.36
2022-09-05T15:41:02.061Z,34.24
2022-09-05T15:43:31.218Z,34.41
2022-09-05T15:46:02.099Z,34.39
2022-09-05T15:48:34.058Z,34.49
2022-09-05T15:51:07.598Z,34.42
2022-09-05T15:53:37.801Z,34.44
2022-09-05T15:56:17.597Z,34.58
2022-09-05T15:58:54.195Z,34.55
2022-09-05T16:01:34.118Z,34.79
2022-09-05T16:08:55.512Z,34.90
2022-09-05T16:10:34.789Z,35.10
2022-09-05T16:10:50.570Z,35.12
2022-09-05T16:12:49.309Z,35.10
2022-09-05T16:19:06.546Z,35.25
2022-09-05T16:23:19.843Z,35.75
2022-09-05T16:23:24.443Z,35.80
2022-09-05T16:23:54.003Z,35.87
2022-09-05T16:26:26.130Z,35.99
2022-09-05T16:28:56.836Z,35.84
2022-09-05T16:31:28.745Z,35.90
2022-09-05T16:33:58.112Z,35.97
2022-09-05T16:36:34.093Z,36.24
2022-09-05T16:39:03.034Z,36.29
2022-09-05T16:41:39.012Z,36.33
2022-09-05T16:44:23.113Z,36.30
2022-09-05T16:47:01.986Z,36.39
2022-09-05T16:49:42.278Z,36.60
2022-09-05T16:52:17.875Z,36.46
2022-09-05T16:54:51.493Z,36.68
2022-09-05T16:57:21.790Z,36.75
2022-09-05T16:59:50.293Z,36.88
2022-09-05T17:02:26.150Z,36.94
2022-09-05T17:05:14.496Z,37.20
2022-09-05T17:07:53.723Z,37.45
2022-09-05T17:10:24.455Z,37.48
2022-09-05T17:12:52.731Z,38.01
2022-09-05T17:15:23.092Z,37.88
2022-09-05T17:18:20.323Z,38.08
2022-09-05T17:20:48.389Z,38.27
2022-09-05T17:29:20.394Z,38.29
2022-09-05T17:29:27.405Z,38.24
2022-09-05T17:29:28.585Z,38.24
2022-09-05T17:32:04.251Z,38.23
2022-09-05T17:34:43.546Z,38.29
2022-09-05T17:37:25.253Z,38.41
2022-09-05T17:39:57.801Z,38.50
2022-09-05T17:42:33.099Z,38.65
2022-09-05T17:45:08.077Z,38.87
2022-09-05T17:47:45.681Z,38.92
2022-09-05T17:50:15.894Z,39.10
2022-09-05T17:53:25.269Z,39.16
2022-09-05T17:56:12.906Z,39.39
2022-09-05T17:58:55.218Z,39.83
2022-09-05T18:01:26.807Z,39.87
2022-09-05T18:04:15.824Z,39.93
2022-09-05T18:06:49.050Z,40.14
2022-09-05T18:13:31.693Z,40.64
2022-09-05T18:16:07.230Z,40.78
2022-09-05T18:19:27.584Z,40.95
2022-09-05T18:21:25.103Z,41.08
2022-09-05T18:24:01.104Z,41.29
2022-09-05T18:26:37.329Z,41.55
2022-09-05T18:29:14.499Z,41.67
2022-09-05T18:32:04.996Z,41.75
2022-09-05T18:34:47.460Z,41.96
2022-09-05T18:37:33.602Z,42.20
2022-09-05T18:40:06.413Z,42.27
2022-09-05T18:42:38.480Z,42.50
2022-09-05T18:45:14.724Z,42.62
2022-09-05T18:47:52.811Z,42.84
2022-09-05T18:50:28.446Z,42.89
2022-09-05T18:53:09.349Z,43.19
2022-09-05T18:56:13.638Z,43.22
2022-09-05T18:58:34.224Z,43.24
2022-09-05T19:01:17.371Z,43.40
2022-09-05T19:03:47.912Z,43.64
2022-09-05T19:06:34.930Z,43.90
2022-09-05T19:09:10.219Z,43.81
2022-09-05T19:11:52.725Z,44.10
2022-09-05T19:14:32.299Z,44.11
2022-09-05T19:17:05.802Z,44.43
2022-09-05T19:20:28.726Z,44.50
2022-09-05T19:23:10.625Z,44.46
2022-09-05T19:25:38.911Z,44.57
2022-09-05T19:32:17.246Z,44.60
2022-09-05T19:36:50.326Z,44.69
2022-09-05T19:36:58.277Z,44.78
2022-09-05T19:37:29.553Z,45.05
2022-09-05T19:41:51.205Z,45.22
2022-09-05T19:47:37.377Z,45.32
2022-09-05T19:47:49.884Z,45.43
2022-09-05T19:48:19.479Z,45.99
2022-09-05T19:50:48.103Z,45.84
2022-09-05T19:53:17.350Z,45.79
2022-09-05T19:55:45.966Z,45.88
2022-09-05T19:58:20.459Z,45.87
2022-09-05T20:01:02.205Z,46.03
2022-09-05T20:03:39.376Z,46.46
2022-09-05T20:06:28.770Z,46.20
2022-09-05T20:09:15.437Z,46.79
2022-09-05T20:11:47.058Z,46.54
2022-09-05T20:14:19.641Z,46.45
2022-09-05T20:16:49.679Z,46.86
2022-09-05T20:19:33.052Z,46.79
2022-09-05T20:22:14.387Z,46.61
2022-09-05T20:24:52.345Z,47.25
2022-09-05T20:27:27.141Z,47.00
2022-09-05T20:29:57.275Z,47.06
2022-09-05T20:32:38.973Z,47.05
2022-09-05T20:38:32.939Z,47.23
2022-09-05T20:43:20.298Z,47.14
2022-09-05T20:43:22.839Z,47.45
2022-09-05T20:43:54.334Z,48.11
2022-09-05T20:50:01.154Z,47.96
2022-09-05T20:54:07.870Z,47.49
2022-09-05T20:54:14.522Z,47.66
2022-09-05T20:55:38.319Z,48.42
2022-09-05T20:58:09.393Z,47.90
2022-09-05T21:00:38.584Z,48.10
2022-09-05T21:03:09.098Z,47.86
2022-09-05T21:05:38.752Z,48.00
2022-09-05T21:08:31.910Z,48.01
2022-09-05T21:11:02.021Z,49.05
2022-09-05T21:13:32.013Z,48.43
2022-09-05T21:16:00.492Z,48.40
2022-09-05T21:18:33.236Z,48.88
2022-09-05T21:21:02.879Z,48.54
2022-09-05T21:24:15.955Z,48.38
2022-09-05T21:26:49.874Z,48.46
2022-09-05T21:29:24.500Z,48.40
2022-09-05T21:31:57.661Z,48.36
2022-09-05T21:34:31.890Z,48.31
2022-09-05T21:37:06.772Z,48.24
2022-09-05T21:39:37.637Z,48.64
2022-09-05T21:42:16.990Z,48.42
2022-09-05T21:47:35.421Z,48.30
2022-09-05T21:47:53.316Z,48.47
2022-09-05T21:50:31.013Z,48.83
2022-09-05T21:53:54.602Z,48.74
2022-09-05T21:59:13.901Z,48.69
2022-09-05T21:59:29.035Z,48.76
2022-09-05T22:01:51.863Z,48.73
2022-09-05T22:04:22.455Z,48.87
2022-09-05T22:06:52.955Z,48.94
2022-09-05T22:09:21.823Z,49.52
2022-09-05T22:11:51.717Z,49.26
2022-09-05T22:14:21.288Z,49.30
2022-09-05T22:16:54.696Z,49.38
2022-09-05T22:19:25.927Z,49.29
2022-09-05T22:22:06.086Z,49.67
2022-09-05T22:24:35.732Z,49.98
2022-09-05T22:27:12.529Z,49.85
2022-09-05T22:29:41.039Z,49.78
2022-09-05T22:32:09.725Z,50.20
2022-09-05T22:34:40.580Z,49.86
2022-09-05T22:37:09.995Z,50.38
2022-09-05T22:39:42.089Z,51.26
2022-09-05T22:42:11.111Z,50.48
2022-09-05T22:44:39.922Z,51.21
2022-09-05T22:47:08.683Z,50.71
2022-09-05T22:49:37.267Z,50.57
2022-09-05T22:52:07.286Z,50.50
2022-09-05T22:54:35.992Z,50.40
2022-09-05T22:57:05.543Z,50.50
2022-09-05T22:59:36.377Z,50.42
2022-09-05T23:02:04.539Z,50.46
2022-09-05T23:04:33.253Z,50.46
2022-09-05T23:07:02.634Z,50.45
2022-09-05T23:09:34.357Z,50.35
2022-09-05T23:12:03.774Z,50.38
2022-09-05T23:14:32.470Z,50.48
2022-09-05T23:17:01.574Z,50.56
2022-09-05T23:19:31.390Z,50.50
2022-09-05T23:22:02.016Z,50.78
2022-09-05T23:24:30.867Z,50.65
2022-09-05T23:26:58.846Z,50.71
2022-09-05T23:29:27.026Z,50.76
2022-09-05T23:31:55.868Z,50.75
2022-09-05T23:34:25.546Z,50.68
2022-09-05T23:36:53.418Z,50.69
2022-09-05T23:39:21.295Z,50.58
2022-09-05T23:41:49.258Z,50.60
2022-09-05T23:44:18.026Z,50.60
2022-09-05T23:46:45.990Z,50.60
2022-09-05T23:49:13.816Z,50.81
2022-09-05T23:51:41.908Z,50.81
2022-09-05T23:54:10.168Z,50.95
2022-09-05T23:56:37.869Z,50.96
2022-09-05T23:59:12.501Z,51.00
